Time;durP1;ratioP1;P1;durP2;ratioP2;P2;SDS_P1;SDS_P2;PMS_P1;PMS_P2;Temp;Humidity;BMP_temperature;BMP_pressure;BME280_temperature;BME280_humidity;BME280_pressure;Samples;Min_cycle;Max_cycle;Signal;HPM_P1;HPM_P2
2020/12/13 00:01:04;;;;;;;3.17;2.05;;;6.20;99.90;;;;;;4970961;28;20228;-28
2020/12/13 00:03:34;;;;;;;3.10;2.15;;;6.20;99.90;;;;;;4970932;28;20279;-29
2020/12/13 00:06:04;;;;;;;2.53;2.33;;;6.20;99.90;;;;;;4970946;28;20299;-29
2020/12/13 00:08:35;;;;;;;2.53;2.33;;;6.20;99.90;;;;;;4970351;28;20283;-29
2020/12/13 00:11:05;;;;;;;2.25;1.92;;;6.10;99.90;;;;;;4970946;28;20216;-28
2020/12/13 00:13:35;;;;;;;2.70;2.50;;;6.10;99.90;;;;;;4970679;28;20227;-28
2020/12/13 00:16:05;;;;;;;3.42;2.30;;;6.10;99.90;;;;;;4970655;28;20212;-28
2020/12/13 00:18:35;;;;;;;1.80;1.70;;;6.10;99.90;;;;;;4970600;28;20274;-29
2020/12/13 00:21:06;;;;;;;2.08;1.88;;;6.00;99.90;;;;;;4970632;28;20205;-29
2020/12/13 00:23:37;;;;;;;2.38;2.20;;;6.00;99.90;;;;;;4982768;28;20657;-28
2020/12/13 00:26:09;;;;;;;2.65;2.10;;;5.90;99.90;;;;;;4989998;28;20238;-29
2020/12/13 00:28:41;;;;;;;2.30;2.10;;;5.90;99.90;;;;;;4990121;28;20503;-29
2020/12/13 00:31:15;;;;;;;3.05;2.85;;;5.80;99.90;;;;;;4989973;28;20208;-29
2020/12/13 00:33:45;;;;;;;2.45;2.10;;;5.80;99.90;;;;;;4989868;28;20196;-29
2020/12/13 00:36:19;;;;;;;2.20;2.00;;;5.80;99.90;;;;;;4989875;28;20196;-29
2020/12/13 00:38:52;;;;;;;1.88;1.77;;;5.70;99.90;;;;;;4989459;28;20271;-28
2020/12/13 00:41:22;;;;;;;2.08;1.98;;;5.70;99.90;;;;;;4989803;28;20645;-29
2020/12/13 00:43:52;;;;;;;2.10;2.00;;;5.70;99.90;;;;;;4990913;28;20270;-29
2020/12/13 00:46:22;;;;;;;2.05;1.85;;;5.70;99.90;;;;;;4993268;28;20232;-28
2020/12/13 00:48:52;;;;;;;2.30;2.10;;;5.60;99.90;;;;;;4993092;28;20200;-28
2020/12/13 00:51:26;;;;;;;1.83;1.73;;;5.60;99.90;;;;;;4993320;28;20314;-29
2020/12/13 00:53:57;;;;;;;2.00;1.90;;;5.60;99.90;;;;;;4992264;28;20269;-28
2020/12/13 00:56:27;;;;;;;3.92;1.77;;;5.60;99.90;;;;;;4993349;28;20196;-28
2020/12/13 00:58:57;;;;;;;2.50;2.30;;;5.60;99.90;;;;;;4993093;28;20212;-29
2020/12/13 01:01:29;;;;;;;1.70;1.60;;;5.60;99.90;;;;;;4993213;28;20290;-28
2020/12/13 01:03:59;;;;;;;1.73;1.63;;;5.60;99.90;;;;;;4992844;28;20211;-28
2020/12/13 01:06:29;;;;;;;2.20;2.10;;;5.60;99.90;;;;;;4992781;28;20282;-28
2020/12/13 01:09:00;;;;;;;3.30;2.35;;;5.60;99.90;;;;;;4992289;28;20192;-28
2020/12/13 01:11:32;;;;;;;2.15;1.83;;;5.60;99.90;;;;;;4993020;28;20196;-28
2020/12/13 01:14:02;;;;;;;2.00;1.75;;;5.60;99.90;;;;;;4992673;28;20650;-29
2020/12/13 01:16:33;;;;;;;1.92;1.83;;;5.60;99.90;;;;;;4992863;28;20192;-28
2020/12/13 01:19:04;;;;;;;1.92;1.73;;;5.70;99.90;;;;;;4992706;28;20192;-28
2020/12/13 01:21:34;;;;;;;2.40;2.20;;;5.70;99.90;;;;;;4992786;28;20644;-28
2020/12/13 01:24:05;;;;;;;2.33;2.13;;;5.70;99.90;;;;;;4991742;28;20203;-27
2020/12/13 01:26:35;;;;;;;2.53;2.38;;;5.70;99.90;;;;;;4992560;28;20282;-28
2020/12/13 01:29:05;;;;;;;2.40;2.22;;;5.70;99.90;;;;;;4992607;28;20259;-27
2020/12/13 01:31:35;;;;;;;2.47;2.28;;;5.70;99.90;;;;;;4992612;28;20199;-27
2020/12/13 01:34:07;;;;;;;3.00;2.33;;;5.70;99.90;;;;;;4992688;28;20220;-27
2020/12/13 01:36:37;;;;;;;2.28;2.13;;;5.70;99.90;;;;;;4992626;28;20593;-27
2020/12/13 01:39:08;;;;;;;3.20;2.28;;;5.70;99.90;;;;;;4992094;28;20299;-27
2020/12/13 01:41:39;;;;;;;2.80;2.60;;;5.70;99.90;;;;;;4992402;28;20329;-28
2020/12/13 01:44:09;;;;;;;2.50;2.30;;;5.70;99.90;;;;;;4992280;28;20200;-28
2020/12/13 01:46:41;;;;;;;2.72;2.53;;;5.70;99.90;;;;;;4992197;28;20672;-28
2020/12/13 01:49:11;;;;;;;2.63;2.42;;;5.70;99.90;;;;;;4992565;28;20199;-28
2020/12/13 01:51:51;;;;;;;2.42;2.30;;;5.70;99.90;;;;;;4992324;28;20254;-28
2020/12/13 01:54:23;;;;;;;2.45;2.25;;;5.80;99.90;;;;;;4992021;28;20199;-28
2020/12/13 01:56:56;;;;;;;2.80;2.60;;;5.70;99.90;;;;;;4991437;28;20202;-28
2020/12/13 01:59:27;;;;;;;2.60;2.40;;;5.80;99.90;;;;;;4992297;28;20196;-28
2020/12/13 02:01:59;;;;;;;2.50;2.30;;;5.80;99.90;;;;;;4991676;28;20646;-28
2020/12/13 02:04:33;;;;;;;2.38;2.28;;;5.90;99.90;;;;;;4992048;28;20203;-28
2020/12/13 02:07:05;;;;;;;2.60;2.33;;;5.90;99.90;;;;;;4991203;28;20228;-28
2020/12/13 02:09:37;;;;;;;3.00;2.80;;;5.90;99.90;;;;;;4992060;28;20607;-28
2020/12/13 02:12:07;;;;;;;2.40;2.20;;;5.90;99.90;;;;;;4991614;28;20192;-27
2020/12/13 02:14:37;;;;;;;2.50;2.30;;;5.90;99.90;;;;;;4991672;28;20191;-28
2020/12/13 02:17:07;;;;;;;2.00;1.90;;;5.90;99.90;;;;;;4991458;28;20211;-28
2020/12/13 02:19:38;;;;;;;2.40;2.20;;;5.90;99.90;;;;;;4991940;28;20199;-28
2020/12/13 02:22:12;;;;;;;2.50;2.30;;;6.00;99.90;;;;;;4990872;28;20204;-28
2020/12/13 02:24:42;;;;;;;2.65;2.45;;;6.00;99.90;;;;;;4991487;28;20273;-28
2020/12/13 02:27:13;;;;;;;2.20;2.00;;;6.00;99.90;;;;;;4991360;28;20246;-29
2020/12/13 02:29:43;;;;;;;2.22;2.10;;;6.10;99.90;;;;;;4991594;28;20337;-28
2020/12/13 02:32:13;;;;;;;2.25;2.15;;;6.10;99.90;;;;;;4991206;28;20212;-28
2020/12/13 02:34:43;;;;;;;2.50;2.30;;;6.00;99.90;;;;;;4991254;28;20246;-28
2020/12/13 02:37:14;;;;;;;2.90;2.70;;;6.00;99.90;;;;;;4990531;28;20595;-27
2020/12/13 02:39:44;;;;;;;2.63;2.42;;;6.00;99.90;;;;;;4990879;28;20239;-28
2020/12/13 02:42:14;;;;;;;2.75;2.47;;;6.10;99.90;;;;;;4990914;28;20600;-27
2020/12/13 02:44:44;;;;;;;2.30;2.13;;;6.10;99.90;;;;;;4990844;28;20208;-29
2020/12/13 02:47:14;;;;;;;2.72;2.10;;;6.10;99.90;;;;;;4990641;28;20691;-28
2020/12/13 02:49:45;;;;;;;1.88;1.73;;;6.10;99.90;;;;;;4991242;28;20196;-30
2020/12/13 02:52:19;;;;;;;2.72;2.63;;;6.10;99.90;;;;;;4990332;28;20207;-28
2020/12/13 02:54:49;;;;;;;2.55;2.35;;;6.10;99.90;;;;;;4990869;28;20279;-28
2020/12/13 02:57:19;;;;;;;2.30;2.10;;;6.10;99.90;;;;;;4990972;28;20268;-27
2020/12/13 02:59:49;;;;;;;2.70;2.50;;;6.10;99.90;;;;;;4990693;28;20207;-28
2020/12/13 03:02:19;;;;;;;2.67;2.47;;;6.10;99.90;;;;;;4991192;28;20270;-29
2020/12/13 03:04:49;;;;;;;2.88;2.58;;;6.10;99.90;;;;;;4990648;28;20211;-28
2020/12/13 03:07:21;;;;;;;2.65;2.40;;;6.10;99.90;;;;;;4989712;28;20231;-28
2020/12/13 03:09:51;;;;;;;2.83;2.60;;;6.00;99.90;;;;;;4991019;28;20242;-29
2020/12/13 03:12:21;;;;;;;2.92;2.63;;;6.10;99.90;;;;;;4990702;28;20701;-27
2020/12/13 03:14:51;;;;;;;3.45;2.35;;;6.00;99.90;;;;;;4991065;28;20706;-28
2020/12/13 03:17:22;;;;;;;3.15;2.85;;;6.00;99.90;;;;;;4990668;28;20204;-27
2020/12/13 03:19:54;;;;;;;3.45;2.58;;;6.00;99.90;;;;;;4990677;28;20291;-27
2020/12/13 03:22:25;;;;;;;2.40;2.25;;;6.00;99.90;;;;;;4990074;28;20211;-28
2020/12/13 03:24:55;;;;;;;3.35;3.05;;;6.00;99.90;;;;;;4990528;28;20319;-29
2020/12/13 03:27:25;;;;;;;2.17;2.08;;;6.10;99.90;;;;;;4991043;28;20258;-28
2020/12/13 03:29:55;;;;;;;3.10;2.80;;;6.10;99.90;;;;;;4994633;28;20191;-28
2020/12/13 03:32:26;;;;;;;2.78;2.42;;;6.00;99.90;;;;;;4989650;28;20211;-28
2020/12/13 03:34:58;;;;;;;3.15;2.80;;;6.00;99.90;;;;;;4989353;28;20196;-27
2020/12/13 03:37:29;;;;;;;2.60;2.40;;;6.10;99.90;;;;;;5000609;28;20303;-27
2020/12/13 03:39:59;;;;;;;2.25;2.15;;;6.10;99.90;;;;;;5009449;28;20647;-27
2020/12/13 03:42:30;;;;;;;2.50;2.30;;;6.10;99.90;;;;;;5008816;28;20651;-27
2020/12/13 03:45:00;;;;;;;3.13;2.92;;;6.20;99.90;;;;;;5009751;28;20207;-27
2020/12/13 03:47:30;;;;;;;2.70;2.50;;;6.20;99.90;;;;;;4994420;28;20223;-29
2020/12/13 03:50:00;;;;;;;2.40;2.30;;;6.20;99.90;;;;;;5007701;28;20200;-28
2020/12/13 03:52:31;;;;;;;2.00;1.90;;;6.20;99.90;;;;;;5006754;28;20203;-28
2020/12/13 03:55:01;;;;;;;3.10;2.83;;;6.20;99.90;;;;;;4995313;28;20192;-28
2020/12/13 03:57:31;;;;;;;2.60;2.40;;;6.20;99.90;;;;;;5004409;28;20199;-28
2020/12/13 04:00:03;;;;;;;2.55;1.92;;;6.20;99.90;;;;;;4991685;28;20605;-28
2020/12/13 04:02:33;;;;;;;2.75;2.55;;;6.20;99.90;;;;;;5008675;28;20643;-28
2020/12/13 04:05:03;;;;;;;2.63;2.42;;;6.20;99.90;;;;;;4986957;28;20262;-28
2020/12/13 04:07:34;;;;;;;2.58;2.22;;;6.30;99.90;;;;;;5001782;28;20239;-27
2020/12/13 04:10:04;;;;;;;2.60;2.40;;;6.20;99.90;;;;;;4995944;28;20554;-28
2020/12/13 04:12:34;;;;;;;3.17;2.88;;;6.20;99.90;;;;;;4997708;28;20234;-28
2020/12/13 04:15:04;;;;;;;2.70;2.50;;;6.20;99.90;;;;;;4990006;28;20255;-27
2020/12/13 04:17:34;;;;;;;3.10;2.90;;;6.20;99.90;;;;;;4991937;28;20215;-27
2020/12/13 04:20:05;;;;;;;2.70;2.42;;;6.20;99.90;;;;;;5000262;28;20199;-27
2020/12/13 04:22:36;;;;;;;3.28;2.55;;;6.20;99.90;;;;;;4993062;28;20192;-27
2020/12/13 04:25:07;;;;;;;2.55;2.35;;;6.20;99.90;;;;;;5007963;28;20289;-27
2020/12/13 04:27:38;;;;;;;2.80;2.65;;;6.20;99.90;;;;;;5013150;28;20224;-27
2020/12/13 04:30:08;;;;;;;2.75;2.55;;;6.20;99.90;;;;;;5005995;28;20614;-27
2020/12/13 04:32:38;;;;;;;2.40;2.25;;;6.20;99.90;;;;;;4995307;28;20261;-27
2020/12/13 04:35:09;;;;;;;2.70;2.50;;;6.20;99.90;;;;;;4998473;28;20248;-28
2020/12/13 04:37:40;;;;;;;2.53;2.33;;;6.20;99.90;;;;;;5003475;28;20275;-28
2020/12/13 04:40:10;;;;;;;2.17;2.08;;;6.20;99.90;;;;;;5003827;28;20672;-28
2020/12/13 04:42:40;;;;;;;2.70;2.50;;;6.20;99.90;;;;;;4999328;28;20199;-29
2020/12/13 04:45:11;;;;;;;2.40;2.20;;;6.30;99.90;;;;;;4994700;28;20207;-28
2020/12/13 04:47:50;;;;;;;2.67;2.47;;;6.20;99.90;;;;;;5007067;28;20821;-28
2020/12/13 04:50:21;;;;;;;2.90;2.58;;;6.20;99.90;;;;;;5001738;28;20595;-28
2020/12/13 04:52:57;;;;;;;3.00;2.70;;;6.30;99.90;;;;;;5011695;28;20260;-29
2020/12/13 04:55:29;;;;;;;2.35;2.15;;;6.40;99.90;;;;;;5009401;28;20253;-28
2020/12/13 04:57:59;;;;;;;2.33;2.15;;;6.30;99.90;;;;;;5003246;28;20509;-28
2020/12/13 05:00:31;;;;;;;2.20;2.10;;;6.30;99.90;;;;;;4995214;28;20276;-28
2020/12/13 05:03:01;;;;;;;2.47;2.25;;;6.30;99.90;;;;;;5006438;28;20189;-29
2020/12/13 05:05:32;;;;;;;2.83;2.60;;;6.40;99.90;;;;;;4993158;28;20207;-29
2020/12/13 05:08:03;;;;;;;2.45;2.25;;;6.30;99.90;;;;;;4992356;28;20286;-29
2020/12/13 05:10:38;;;;;;;2.97;2.72;;;6.40;99.90;;;;;;4993283;28;20254;-29
2020/12/13 05:13:08;;;;;;;2.47;2.28;;;6.40;99.90;;;;;;4997804;28;20522;-29
2020/12/13 05:15:40;;;;;;;3.47;2.70;;;6.40;99.90;;;;;;5003998;28;20541;-28
2020/12/13 05:18:10;;;;;;;3.83;2.53;;;6.40;99.90;;;;;;5005689;28;20249;-28
2020/12/13 05:20:40;;;;;;;2.47;2.28;;;6.40;99.90;;;;;;5005275;28;20195;-28
2020/12/13 05:23:11;;;;;;;2.05;1.95;;;6.50;99.90;;;;;;4989052;28;20285;-29
2020/12/13 05:25:42;;;;;;;2.33;2.13;;;6.40;99.90;;;;;;4996223;28;20290;-27
2020/12/13 05:28:13;;;;;;;1.90;1.80;;;6.50;99.90;;;;;;4987730;28;20566;-27
2020/12/13 05:30:44;;;;;;;3.97;3.63;;;6.50;99.90;;;;;;4993350;28;20206;-28
2020/12/13 05:33:20;;;;;;;12.57;10.30;;;6.50;99.90;;;;;;4992126;28;20229;-28
2020/12/13 05:35:53;;;;;;;8.60;7.90;;;6.50;99.90;;;;;;4996811;28;20262;-34
2020/12/13 05:38:25;;;;;;;15.10;13.98;;;6.50;99.90;;;;;;4992013;28;20211;-28
2020/12/13 05:40:56;;;;;;;28.88;26.58;;;6.50;99.90;;;;;;4990202;28;20235;-28
2020/12/13 05:43:29;;;;;;;24.83;22.73;;;6.60;99.90;;;;;;4991069;28;20496;-28
2020/12/13 05:46:18;;;;;;;22.40;20.58;;;6.50;99.90;;;;;;4991267;28;20196;-28
2020/12/13 05:49:11;;;;;;;10.88;9.98;;;6.50;99.90;;;;;;4995921;28;20237;-28
2020/12/13 05:51:42;;;;;;;3.80;3.58;;;6.60;99.90;;;;;;4992809;28;20620;-28
2020/12/13 05:54:20;;;;;;;3.22;2.92;;;6.60;99.90;;;;;;4992323;28;20211;-27
2020/12/13 05:56:58;;;;;;;11.23;10.35;;;6.60;99.90;;;;;;4991785;28;20299;-28
2020/12/13 05:59:30;;;;;;;13.68;12.48;;;6.60;99.90;;;;;;4982482;28;20192;-28
2020/12/13 06:02:01;;;;;;;5.95;5.50;;;6.60;99.90;;;;;;5001597;28;20196;-29
2020/12/13 06:04:32;;;;;;;8.23;7.63;;;6.60;99.90;;;;;;4999709;28;20207;-28
2020/12/13 06:07:04;;;;;;;5.60;4.85;;;6.70;99.90;;;;;;5000329;28;20246;-28
2020/12/13 06:09:36;;;;;;;5.07;4.68;;;6.60;99.90;;;;;;4997636;28;20199;-28
2020/12/13 06:12:07;;;;;;;3.75;3.45;;;6.60;99.90;;;;;;4991437;28;20609;-28
2020/12/13 06:14:39;;;;;;;3.63;3.33;;;6.70;99.90;;;;;;4996811;28;20211;-28
2020/12/13 06:17:10;;;;;;;7.75;6.75;;;6.70;99.90;;;;;;4989226;28;20621;-28
2020/12/13 06:19:41;;;;;;;9.50;8.57;;;6.80;99.90;;;;;;4991212;28;20247;-28
2020/12/13 06:22:15;;;;;;;2.35;2.15;;;6.70;99.90;;;;;;4989912;28;20199;-28
2020/12/13 06:24:48;;;;;;;25.67;20.58;;;6.60;99.90;;;;;;4980992;28;21644;-28
2020/12/13 06:27:20;;;;;;;16.30;12.50;;;6.40;99.90;;;;;;4990273;28;20196;-28
2020/12/13 06:29:51;;;;;;;13.35;12.00;;;6.40;99.90;;;;;;4987339;28;20195;-28
2020/12/13 06:32:21;;;;;;;5.72;4.18;;;6.30;99.90;;;;;;4990532;28;20207;-28
2020/12/13 06:34:51;;;;;;;11.30;10.20;;;6.20;99.90;;;;;;4988625;28;20215;-28
2020/12/13 06:37:25;;;;;;;4.20;3.88;;;6.10;99.90;;;;;;4991300;28;20232;-29
2020/12/13 06:39:56;;;;;;;8.68;5.60;;;6.10;99.90;;;;;;4991172;28;20231;-29
2020/12/13 06:42:27;;;;;;;3.75;3.45;;;6.00;99.90;;;;;;4995798;28;20203;-29
2020/12/13 06:45:08;;;;;;;3.17;2.88;;;5.80;99.90;;;;;;5006748;28;20213;-28
2020/12/13 06:47:41;;;;;;;10.88;9.98;;;5.50;99.90;;;;;;4991978;28;20770;-28
2020/12/13 06:50:12;;;;;;;22.23;19.80;;;5.30;99.90;;;;;;5009719;28;20294;-28
2020/12/13 06:52:45;;;;;;;3.65;3.35;;;5.10;99.90;;;;;;5009438;28;20195;-28
2020/12/13 06:55:16;;;;;;;3.53;3.22;;;5.00;99.90;;;;;;4987666;28;20196;-27
2020/12/13 06:57:48;;;;;;;5.00;4.60;;;4.90;99.90;;;;;;4987006;28;20275;-27
2020/12/13 07:00:18;;;;;;;7.25;6.72;;;5.00;99.90;;;;;;4990086;28;20215;-28
2020/12/13 07:02:55;;;;;;;7.75;6.95;;;5.00;99.90;;;;;;5002195;28;20200;-29
2020/12/13 07:05:48;;;;;;;5.63;4.40;;;5.00;99.90;;;;;;4996292;28;20639;-29
2020/12/13 07:08:21;;;;;;;3.50;3.20;;;5.10;99.90;;;;;;5006844;28;20249;-28
2020/12/13 07:10:54;;;;;;;3.47;3.17;;;5.20;99.90;;;;;;5010095;28;20623;-29
2020/12/13 07:13:25;;;;;;;3.65;3.35;;;5.10;99.90;;;;;;5009821;28;20191;-27
2020/12/13 07:16:01;;;;;;;3.30;2.88;;;5.20;99.90;;;;;;5008724;28;20629;-28
2020/12/13 07:18:33;;;;;;;5.35;4.95;;;5.20;99.90;;;;;;4975869;28;20663;-27
2020/12/13 07:21:03;;;;;;;10.63;9.60;;;5.20;99.90;;;;;;4992107;28;20605;-27
2020/12/13 07:23:36;;;;;;;6.32;5.80;;;5.30;99.90;;;;;;4996991;28;20195;-26
2020/12/13 07:26:08;;;;;;;31.58;28.13;;;5.30;99.90;;;;;;5007291;28;20357;-27
2020/12/13 07:28:38;;;;;;;23.67;21.33;;;5.30;99.90;;;;;;4994783;28;20251;-28
2020/12/13 07:31:09;;;;;;;5.82;5.32;;;5.30;99.90;;;;;;5004190;28;20602;-28
2020/12/13 07:33:40;;;;;;;14.07;11.95;;;5.30;99.90;;;;;;4996471;28;20577;-27
2020/12/13 07:36:11;;;;;;;10.32;8.60;;;5.30;99.90;;;;;;5007161;28;20195;-27
2020/12/13 07:38:41;;;;;;;4.43;4.03;;;5.40;99.90;;;;;;5001549;28;20239;-28
2020/12/13 07:41:20;;;;;;;5.03;4.60;;;5.40;99.90;;;;;;5002594;28;20290;-28
2020/12/13 07:43:55;;;;;;;5.20;4.70;;;5.30;99.90;;;;;;5007582;28;20187;-27
2020/12/13 07:46:26;;;;;;;5.85;4.85;;;5.30;99.90;;;;;;4990599;28;20355;-28
2020/12/13 07:49:08;;;;;;;6.38;5.78;;;5.20;99.90;;;;;;4990181;28;20290;-28
2020/12/13 07:51:40;;;;;;;4.30;3.90;;;5.00;99.90;;;;;;4999427;28;20214;-28
2020/12/13 07:54:18;;;;;;;6.50;5.90;;;4.90;99.90;;;;;;4995458;28;20269;-28
2020/12/13 07:56:51;;;;;;;7.05;6.35;;;4.80;99.90;;;;;;5000067;28;20199;-29
2020/12/13 07:59:22;;;;;;;6.70;6.10;;;4.80;99.90;;;;;;5013969;28;20802;-28
2020/12/13 08:01:52;;;;;;;8.05;7.22;;;4.70;99.90;;;;;;5008379;28;20188;-28
2020/12/13 08:04:33;;;;;;;18.80;16.55;;;4.70;99.90;;;;;;4984005;28;20250;-28
2020/12/13 08:07:05;;;;;;;9.50;7.45;;;4.70;99.90;;;;;;4998982;28;20427;-27
2020/12/13 08:09:38;;;;;;;10.80;7.90;;;4.60;99.90;;;;;;5009082;28;20565;-27
2020/12/13 08:12:10;;;;;;;7.28;6.45;;;4.70;99.90;;;;;;4998553;28;20244;-27
2020/12/13 08:14:41;;;;;;;10.40;8.15;;;4.60;99.90;;;;;;4993933;28;20196;-27
2020/12/13 08:17:17;;;;;;;9.38;7.35;;;4.60;99.90;;;;;;4994096;28;20668;-27
2020/12/13 08:19:50;;;;;;;18.77;13.68;;;4.70;99.90;;;;;;5012424;28;20195;-28
2020/12/13 08:22:23;;;;;;;8.25;6.47;;;4.60;99.90;;;;;;5001281;28;20192;-28
2020/12/13 08:24:55;;;;;;;10.13;8.98;;;4.70;99.90;;;;;;4996631;28;20273;-26
2020/12/13 08:27:28;;;;;;;10.60;8.95;;;4.70;99.90;;;;;;5002609;28;20200;-28
2020/12/13 08:29:59;;;;;;;7.80;7.00;;;4.70;99.90;;;;;;4993623;28;20215;-27
2020/12/13 08:32:33;;;;;;;16.77;11.95;;;4.70;99.90;;;;;;5003780;28;20639;-27
2020/12/13 08:35:12;;;;;;;8.50;6.60;;;4.60;99.90;;;;;;5006144;28;20670;-28
2020/12/13 08:37:42;;;;;;;10.00;8.38;;;4.60;99.90;;;;;;5000019;28;20246;-27
2020/12/13 08:40:36;;;;;;;8.98;6.70;;;4.60;99.90;;;;;;4993845;28;20352;-28
2020/12/13 08:43:10;;;;;;;8.30;7.40;;;4.60;99.90;;;;;;5009326;28;20188;-28
2020/12/13 08:45:40;;;;;;;7.63;5.93;;;4.60;99.90;;;;;;4993632;28;20188;-27
2020/12/13 08:48:11;;;;;;;7.75;7.03;;;4.50;99.90;;;;;;4990814;28;20282;-28
2020/12/13 08:50:41;;;;;;;8.70;7.80;;;4.50;99.90;;;;;;4998115;28;20203;-28
2020/12/13 08:53:24;;;;;;;7.00;6.15;;;4.40;99.90;;;;;;5001852;28;20203;-28
2020/12/13 08:56:04;;;;;;;9.85;8.88;;;4.40;99.90;;;;;;5011316;28;20557;-28
2020/12/13 08:58:49;;;;;;;9.82;6.95;;;4.30;99.90;;;;;;4993463;28;20224;-28
2020/12/13 09:01:23;;;;;;;8.65;6.60;;;4.30;99.90;;;;;;4993266;28;20262;-28
2020/12/13 09:03:54;;;;;;;7.25;5.90;;;4.30;99.90;;;;;;4992057;28;20636;-29
2020/12/13 09:06:29;;;;;;;7.18;6.47;;;4.30;99.90;;;;;;5007982;28;20262;-28
2020/12/13 09:09:14;;;;;;;6.90;6.20;;;4.20;99.90;;;;;;4996633;28;20215;-29
2020/12/13 09:11:44;;;;;;;6.30;5.70;;;4.20;99.90;;;;;;5000776;28;20207;-28
2020/12/13 09:14:32;;;;;;;6.00;5.40;;;4.30;99.90;;;;;;4992963;28;20254;-27
2020/12/13 09:17:03;;;;;;;7.38;6.30;;;4.20;99.90;;;;;;4992938;28;20568;-27
2020/12/13 09:19:33;;;;;;;7.90;7.10;;;4.20;99.90;;;;;;4993833;28;20200;-27
2020/12/13 09:22:03;;;;;;;7.10;6.18;;;4.30;99.90;;;;;;4992053;28;20302;-27
2020/12/13 09:24:33;;;;;;;6.70;5.85;;;4.20;99.90;;;;;;4993845;28;20224;-28
2020/12/13 09:27:08;;;;;;;6.03;5.43;;;4.20;99.90;;;;;;4993859;28;20208;-28
2020/12/13 09:29:39;;;;;;;6.50;5.90;;;4.20;99.90;;;;;;4992871;28;20219;-28
2020/12/13 09:32:09;;;;;;;6.45;5.35;;;4.20;99.90;;;;;;4980226;28;20499;-26
2020/12/13 09:34:40;;;;;;;5.95;5.30;;;4.10;99.90;;;;;;5005215;28;20644;-27
2020/12/13 09:37:10;;;;;;;6.60;5.40;;;4.20;99.90;;;;;;4997767;28;20208;-27
2020/12/13 09:39:41;;;;;;;7.13;6.25;;;4.10;99.90;;;;;;5006108;28;20239;-27
2020/12/13 09:42:12;;;;;;;6.97;6.07;;;4.10;99.90;;;;;;4995371;28;20264;-27
2020/12/13 09:44:47;;;;;;;6.72;5.95;;;4.10;99.90;;;;;;5004356;28;20196;-27
2020/12/13 09:47:17;;;;;;;7.13;6.43;;;4.20;99.90;;;;;;5000731;28;20260;-27
2020/12/13 09:49:47;;;;;;;7.05;5.90;;;4.20;99.90;;;;;;4998463;28;20337;-27
2020/12/13 09:52:17;;;;;;;6.50;5.90;;;4.20;99.90;;;;;;5007373;28;20299;-27
2020/12/13 09:54:48;;;;;;;5.80;5.30;;;4.10;99.90;;;;;;4994098;28;20212;-28
2020/12/13 09:57:18;;;;;;;6.32;5.43;;;4.10;99.90;;;;;;5001138;28;20733;-28
2020/12/13 09:59:49;;;;;;;7.43;5.38;;;4.10;99.90;;;;;;5011245;28;20497;-28
2020/12/13 10:02:19;;;;;;;6.70;5.97;;;4.10;99.90;;;;;;4998751;28;20692;-27
2020/12/13 10:04:49;;;;;;;6.13;5.53;;;4.10;99.90;;;;;;4997060;28;20261;-28
2020/12/13 10:10:03;;;;;;;5.70;5.05;;;4.00;99.90;;;;;;4990794;28;20307;-31
2020/12/13 10:12:33;;;;;;;5.65;5.15;;;4.10;99.90;;;;;;4991677;28;20199;-27
2020/12/13 10:15:05;;;;;;;5.40;4.90;;;4.10;99.90;;;;;;4992882;28;20589;-27
2020/12/13 10:17:35;;;;;;;5.10;4.60;;;4.10;99.90;;;;;;4991470;28;20199;-27
2020/12/13 10:20:05;;;;;;;5.65;5.05;;;4.10;99.90;;;;;;4994678;28;20510;-27
2020/12/13 10:22:35;;;;;;;4.88;4.47;;;4.10;99.90;;;;;;4993806;28;20578;-27
2020/12/13 10:25:05;;;;;;;4.50;4.10;;;4.10;99.90;;;;;;5010228;28;20234;-27
2020/12/13 10:27:35;;;;;;;4.80;4.40;;;4.10;99.90;;;;;;4997566;28;20200;-27
2020/12/13 10:30:07;;;;;;;5.07;4.68;;;4.20;99.90;;;;;;5000182;28;20238;-27
2020/12/13 10:32:37;;;;;;;5.07;4.68;;;4.20;99.90;;;;;;4993929;28;20245;-28
2020/12/13 10:35:07;;;;;;;4.82;3.80;;;4.10;99.90;;;;;;4995378;28;20198;-28
2020/12/13 10:37:38;;;;;;;4.82;4.13;;;4.10;99.90;;;;;;5000257;28;20285;-27
2020/12/13 10:40:08;;;;;;;4.70;4.30;;;4.10;99.90;;;;;;5009945;28;20239;-28
2020/12/13 10:42:38;;;;;;;4.30;3.60;;;4.10;99.90;;;;;;4997685;28;20193;-28
2020/12/13 10:45:09;;;;;;;5.13;4.22;;;4.10;99.90;;;;;;5009469;28;20639;-27
2020/12/13 10:47:39;;;;;;;4.68;4.28;;;4.10;99.90;;;;;;5010038;28;20269;-27
2020/12/13 10:50:09;;;;;;;5.28;4.53;;;4.10;99.90;;;;;;4999589;28;20315;-27
2020/12/13 10:52:39;;;;;;;5.40;3.78;;;4.10;99.90;;;;;;5003134;28;20255;-27
2020/12/13 10:55:09;;;;;;;4.40;3.97;;;4.00;99.90;;;;;;5006125;28;20199;-27
2020/12/13 10:57:44;;;;;;;4.93;4.13;;;4.00;99.90;;;;;;4994987;28;20250;-26
2020/12/13 11:00:15;;;;;;;4.38;3.97;;;3.90;99.90;;;;;;5001587;28;20616;-27
2020/12/13 11:02:45;;;;;;;4.00;3.60;;;3.90;99.90;;;;;;4998788;28;20711;-28
2020/12/13 11:05:15;;;;;;;4.65;3.47;;;4.00;99.90;;;;;;4998722;28;20192;-27
2020/12/13 11:07:45;;;;;;;2.92;2.70;;;3.90;99.90;;;;;;4997799;28;20195;-27
2020/12/13 11:10:16;;;;;;;4.93;4.03;;;4.00;99.90;;;;;;5007949;28;20313;-28
2020/12/13 11:12:46;;;;;;;3.53;3.22;;;3.90;99.90;;;;;;4997314;28;20207;-27
2020/12/13 11:15:17;;;;;;;4.00;3.60;;;4.00;99.90;;;;;;4980439;28;20258;-28
2020/12/13 11:17:47;;;;;;;3.47;3.17;;;4.00;99.90;;;;;;4996647;28;20635;-28
2020/12/13 11:20:17;;;;;;;3.70;3.40;;;4.00;99.90;;;;;;4995584;28;20565;-27
2020/12/13 11:22:47;;;;;;;4.05;3.65;;;4.00;99.90;;;;;;4992461;28;20573;-27
2020/12/13 11:25:17;;;;;;;3.60;3.30;;;4.00;99.90;;;;;;4994955;28;20539;-27
2020/12/13 11:27:47;;;;;;;4.03;3.35;;;4.10;99.90;;;;;;4996363;28;20572;-27
2020/12/13 11:30:18;;;;;;;3.95;3.60;;;4.10;99.90;;;;;;5009666;28;20731;-27
2020/12/13 11:32:49;;;;;;;4.05;3.67;;;4.20;99.90;;;;;;4996888;28;20529;-27
2020/12/13 11:35:20;;;;;;;4.07;3.33;;;4.30;99.90;;;;;;4996070;28;20270;-28
2020/12/13 11:37:50;;;;;;;4.80;3.60;;;4.30;99.90;;;;;;5008570;28;20265;-27
2020/12/13 11:40:20;;;;;;;4.00;3.60;;;4.30;99.90;;;;;;4999094;28;20231;-27
2020/12/13 11:42:50;;;;;;;3.53;3.22;;;4.30;99.90;;;;;;4990245;28;20196;-27
2020/12/13 11:45:21;;;;;;;3.85;3.45;;;4.30;99.90;;;;;;5001742;28;20199;-27
2020/12/13 11:47:51;;;;;;;3.50;3.20;;;4.20;99.90;;;;;;5005979;28;20651;-27
2020/12/13 11:50:21;;;;;;;3.50;3.20;;;4.20;99.90;;;;;;5007855;28;20249;-27
2020/12/13 11:52:52;;;;;;;3.60;3.30;;;4.20;99.90;;;;;;4991689;28;20204;-27
2020/12/13 11:55:22;;;;;;;3.95;3.55;;;4.20;99.90;;;;;;5002515;28;20203;-27
2020/12/13 11:57:52;;;;;;;4.40;3.97;;;4.20;99.90;;;;;;4990094;28;20561;-27
2020/12/13 12:00:23;;;;;;;3.97;3.60;;;4.20;99.90;;;;;;4994728;28;20290;-27
2020/12/13 12:02:54;;;;;;;4.15;3.63;;;4.20;99.90;;;;;;4998452;28;20187;-27
2020/12/13 12:05:24;;;;;;;4.22;3.85;;;4.10;99.90;;;;;;4998302;28;20200;-27
2020/12/13 12:07:54;;;;;;;5.10;4.35;;;4.00;99.90;;;;;;4997575;28;20199;-27
2020/12/13 12:10:24;;;;;;;4.70;4.25;;;4.00;99.90;;;;;;5000565;28;20238;-27
2020/12/13 12:12:54;;;;;;;4.90;4.47;;;4.00;99.90;;;;;;5008958;28;20635;-26
2020/12/13 12:15:25;;;;;;;6.25;4.88;;;4.00;99.90;;;;;;5003402;28;20253;-26
2020/12/13 12:17:56;;;;;;;5.90;4.25;;;4.10;99.90;;;;;;5008258;28;20269;-27
2020/12/13 12:20:28;;;;;;;5.55;4.60;;;4.00;99.90;;;;;;5009098;28;20243;-26
2020/12/13 12:22:58;;;;;;;5.60;4.60;;;4.00;99.90;;;;;;4995308;28;20184;-26
2020/12/13 12:25:28;;;;;;;4.80;4.30;;;4.00;99.90;;;;;;4989489;28;20722;-26
2020/12/13 12:27:58;;;;;;;5.75;4.68;;;4.00;99.90;;;;;;4989946;28;20278;-25
2020/12/13 12:30:29;;;;;;;5.72;4.32;;;3.90;99.90;;;;;;4992521;28;20227;-26
2020/12/13 12:33:03;;;;;;;5.43;4.93;;;3.80;99.90;;;;;;5002234;28;20199;-26
2020/12/13 12:35:33;;;;;;;5.80;5.03;;;3.90;99.90;;;;;;4994932;28;20205;-26
2020/12/13 12:38:03;;;;;;;6.25;4.82;;;3.90;99.90;;;;;;5003868;28;20359;-27
2020/12/13 12:40:33;;;;;;;6.07;5.25;;;4.00;99.90;;;;;;5004212;28;20385;-25
2020/12/13 12:43:03;;;;;;;5.80;4.70;;;3.90;99.90;;;;;;5012208;28;20203;-26
2020/12/13 12:45:34;;;;;;;6.28;5.68;;;3.90;99.90;;;;;;5000189;28;20452;-28
2020/12/13 12:48:04;;;;;;;6.10;5.50;;;3.90;99.90;;;;;;4999509;28;20203;-26
2020/12/13 12:50:36;;;;;;;6.25;5.10;;;3.90;99.90;;;;;;5004359;28;20235;-26
2020/12/13 12:53:06;;;;;;;6.45;5.55;;;3.90;99.90;;;;;;5002638;28;20188;-26
2020/12/13 12:55:36;;;;;;;6.00;5.40;;;3.90;99.90;;;;;;5002836;28;20196;-27
2020/12/13 12:58:06;;;;;;;8.40;6.20;;;3.90;99.90;;;;;;4983981;28;20208;-26
2020/12/13 13:00:44;;;;;;;6.97;6.15;;;3.80;99.90;;;;;;5000399;28;20209;-26
2020/12/13 13:03:14;;;;;;;6.55;5.90;;;3.80;99.90;;;;;;4995762;28;20258;-27
2020/12/13 13:06:03;;;;;;;6.07;5.47;;;3.80;99.90;;;;;;4997786;28;20191;-26
2020/12/13 13:08:36;;;;;;;8.65;7.00;;;3.80;99.90;;;;;;4993841;28;20204;-27
2020/12/13 13:11:09;;;;;;;7.07;6.32;;;3.90;99.90;;;;;;4993491;28;20255;-27
2020/12/13 13:13:39;;;;;;;7.22;6.15;;;3.80;99.90;;;;;;5008115;28;20194;-27
2020/12/13 13:16:11;;;;;;;7.60;6.60;;;3.90;99.90;;;;;;5003933;28;20273;-26
2020/12/13 13:18:41;;;;;;;5.53;5.03;;;3.80;99.90;;;;;;5003258;28;20227;-27
2020/12/13 13:21:11;;;;;;;7.80;5.25;;;3.80;99.90;;;;;;5001189;28;20200;-26